Time;durP1;ratioP1;P1;durP2;ratioP2;P2;SDS_P1;SDS_P2;PMS_P1;PMS_P2;Temp;Humidity;BMP_temperature;BMP_pressure;BME280_temperature;BME280_humidity;BME280_pressure;Samples;Min_cycle;Max_cycle;Signal;HPM_P1;HPM_P2
2022/06/03 00:00:49;;;;;;;9.02;6.25;;;8.90;86.70;;;;;;5028833;28;20045;-44
2022/06/03 00:03:24;;;;;;;9.90;6.50;;;8.90;86.80;;;;;;5032689;28;20115;-42
2022/06/03 00:06:04;;;;;;;9.50;6.55;;;8.80;87.00;;;;;;5040059;28;20497;-41
2022/06/03 00:08:56;;;;;;;7.05;5.82;;;8.80;86.80;;;;;;5049416;28;20048;-44
2022/06/03 00:11:28;;;;;;;10.02;6.65;;;8.80;86.80;;;;;;5031985;28;20044;-42
2022/06/03 00:13:53;;;;;;;10.30;6.45;;;8.70;86.50;;;;;;5029433;28;20059;-41
2022/06/03 00:16:49;;;;;;;9.80;5.95;;;8.70;86.60;;;;;;5030749;28;20120;-44
2022/06/03 00:19:47;;;;;;;7.53;5.38;;;8.60;86.80;;;;;;5011350;28;20030;-41
2022/06/03 00:22:13;;;;;;;8.30;6.60;;;8.60;87.00;;;;;;5039794;28;20032;-42
2022/06/03 00:24:44;;;;;;;8.35;5.55;;;8.60;87.00;;;;;;5052514;28;20028;-41
2022/06/03 00:27:29;;;;;;;8.10;6.30;;;8.60;86.90;;;;;;5051064;28;20047;-41
2022/06/03 00:30:17;;;;;;;8.32;5.40;;;8.60;87.00;;;;;;5037833;28;20040;-42
2022/06/03 00:33:25;;;;;;;7.60;6.15;;;8.60;86.90;;;;;;5041268;28;20043;-43
2022/06/03 00:36:09;;;;;;;8.73;5.93;;;8.60;86.70;;;;;;5029945;28;20036;-41
2022/06/03 00:38:44;;;;;;;7.15;5.78;;;8.50;86.70;;;;;;4991730;28;20041;-41
2022/06/03 00:41:49;;;;;;;7.40;6.10;;;8.50;86.90;;;;;;5008117;28;20407;-42
2022/06/03 00:44:33;;;;;;;7.93;6.18;;;8.50;87.10;;;;;;5044231;28;20468;-41
2022/06/03 00:47:04;;;;;;;7.65;5.65;;;8.50;87.20;;;;;;5051017;28;20372;-43
2022/06/03 00:49:48;;;;;;;7.13;6.00;;;8.40;87.00;;;;;;5049940;28;20494;-44
2022/06/03 00:52:45;;;;;;;6.93;5.93;;;8.40;87.00;;;;;;5042119;28;20370;-44
2022/06/03 00:55:18;;;;;;;7.18;6.30;;;8.40;86.80;;;;;;5051793;28;20044;-42
2022/06/03 00:58:08;;;;;;;7.78;6.28;;;8.40;86.60;;;;;;5041979;28;20021;-43
2022/06/03 01:01:00;;;;;;;6.60;5.30;;;8.30;86.80;;;;;;5031171;28;20037;-41
2022/06/03 01:03:53;;;;;;;7.90;5.72;;;8.20;87.00;;;;;;5016362;28;20536;-41
2022/06/03 01:06:36;;;;;;;6.88;5.43;;;8.30;87.40;;;;;;5031077;28;20363;-41
2022/06/03 01:09:14;;;;;;;7.80;5.97;;;8.30;87.00;;;;;;5030681;28;20036;-41
2022/06/03 01:11:43;;;;;;;6.82;6.07;;;8.30;86.90;;;;;;5035633;28;20037;-42
2022/06/03 01:14:20;;;;;;;7.68;6.50;;;8.20;86.80;;;;;;5031726;28;20029;-43
2022/06/03 01:17:13;;;;;;;7.82;6.15;;;8.20;86.70;;;;;;5030739;28;20039;-42
2022/06/03 01:20:00;;;;;;;8.10;6.10;;;8.20;86.70;;;;;;5045945;28;20506;-41
2022/06/03 01:22:45;;;;;;;9.10;6.57;;;8.20;86.60;;;;;;5046943;28;20480;-41
2022/06/03 01:25:36;;;;;;;8.98;7.05;;;8.10;86.50;;;;;;5040812;28;20108;-46
2022/06/03 01:28:35;;;;;;;9.57;7.15;;;8.00;86.60;;;;;;5045327;28;20044;-44
2022/06/03 01:31:54;;;;;;;8.93;6.88;;;8.10;86.80;;;;;;5047298;28;20108;-41
2022/06/03 01:34:57;;;;;;;7.22;6.35;;;8.00;86.90;;;;;;5015348;28;20067;-42
2022/06/03 01:37:48;;;;;;;9.50;5.88;;;7.90;86.50;;;;;;5030815;28;20037;-43
2022/06/03 01:40:35;;;;;;;8.98;6.38;;;7.90;86.50;;;;;;5029222;28;20119;-46
2022/06/03 01:43:27;;;;;;;7.40;6.57;;;7.90;86.50;;;;;;5033716;28;20108;-44
2022/06/03 01:46:29;;;;;;;8.35;6.72;;;7.90;86.40;;;;;;5031238;28;20037;-41
2022/06/03 01:49:19;;;;;;;8.38;6.05;;;7.90;86.60;;;;;;5035130;28;20033;-40
2022/06/03 01:52:08;;;;;;;7.72;6.30;;;7.90;86.70;;;;;;5050817;28;20488;-43
2022/06/03 01:54:54;;;;;;;7.28;6.38;;;7.90;86.90;;;;;;5047682;28;20041;-41
2022/06/03 01:57:52;;;;;;;9.23;7.03;;;7.80;87.00;;;;;;5050694;28;20045;-41
2022/06/03 02:01:17;;;;;;;9.07;6.75;;;7.80;87.00;;;;;;5024853;28;20072;-44
2022/06/03 02:04:05;;;;;;;9.20;6.95;;;7.90;87.20;;;;;;5020487;28;20037;-40
2022/06/03 02:07:09;;;;;;;9.43;7.47;;;7.80;87.40;;;;;;5049368;28;20025;-44
2022/06/03 02:10:04;;;;;;;9.13;6.95;;;7.90;87.50;;;;;;4991178;28;20025;-42
2022/06/03 02:13:01;;;;;;;8.68;7.05;;;7.90;87.50;;;;;;5015916;28;20034;-43
2022/06/03 02:16:03;;;;;;;7.53;6.15;;;7.90;87.50;;;;;;5019902;28;20124;-43
2022/06/03 02:18:44;;;;;;;7.40;6.05;;;7.80;87.30;;;;;;5043449;28;20072;-43
2022/06/03 02:21:27;;;;;;;8.07;5.88;;;7.90;87.10;;;;;;5050313;28;20021;-44
2022/06/03 02:24:24;;;;;;;6.93;6.07;;;7.70;86.70;;;;;;5038406;28;20460;-42
2022/06/03 02:27:11;;;;;;;6.75;5.50;;;7.70;86.80;;;;;;5030483;28;20450;-43
2022/06/03 02:33:00;;;;;;;7.35;6.15;;;7.60;86.60;;;;;;5010446;28;20040;-43
2022/06/03 02:35:52;;;;;;;7.20;5.50;;;7.70;86.80;;;;;;5032599;28;20071;-41
2022/06/03 02:38:43;;;;;;;7.43;6.03;;;7.60;86.50;;;;;;5026021;28;20033;-43
2022/06/03 02:41:20;;;;;;;9.15;6.45;;;7.60;86.80;;;;;;5039827;28;20025;-43
2022/06/03 02:44:05;;;;;;;10.10;6.65;;;7.60;86.80;;;;;;5026686;28;20025;-41
2022/06/03 02:46:52;;;;;;;7.70;6.07;;;7.60;86.80;;;;;;5040682;28;20033;-44
2022/06/03 02:49:29;;;;;;;7.05;6.15;;;7.60;86.90;;;;;;5043256;28;20039;-41
2022/06/03 02:52:20;;;;;;;7.05;5.80;;;7.50;86.60;;;;;;5035495;28;20030;-43
2022/06/03 02:55:02;;;;;;;7.15;6.28;;;7.50;86.80;;;;;;5032125;28;20048;-44
2022/06/03 02:57:42;;;;;;;6.72;6.03;;;7.50;86.60;;;;;;5029175;28;20083;-41
2022/06/03 03:00:19;;;;;;;7.35;6.45;;;7.40;86.70;;;;;;5026672;28;20022;-41
2022/06/03 03:03:17;;;;;;;8.05;6.85;;;7.40;86.50;;;;;;5028696;28;20041;-40
2022/06/03 03:06:14;;;;;;;8.48;6.22;;;7.40;86.80;;;;;;5027475;28;20029;-40
2022/06/03 03:08:43;;;;;;;6.75;5.85;;;7.40;87.00;;;;;;5028514;28;20021;-41
2022/06/03 03:11:42;;;;;;;9.40;5.87;;;7.40;87.20;;;;;;5027794;28;20029;-41
2022/06/03 03:14:36;;;;;;;5.77;4.93;;;7.30;87.30;;;;;;5019822;28;20125;-44
2022/06/03 03:17:20;;;;;;;7.28;5.82;;;7.40;87.20;;;;;;5009353;28;20549;-41
2022/06/03 03:20:17;;;;;;;6.15;5.25;;;7.40;87.30;;;;;;5023077;28;20112;-41
2022/06/03 03:23:25;;;;;;;5.38;4.47;;;7.30;87.10;;;;;;5027666;28;20295;-42
2022/06/03 03:26:16;;;;;;;6.65;4.90;;;7.40;87.20;;;;;;5027706;28;20068;-42
2022/06/03 03:28:56;;;;;;;7.50;4.38;;;7.40;87.20;;;;;;5028585;28;20025;-41
2022/06/03 03:31:52;;;;;;;6.15;4.95;;;7.30;87.30;;;;;;5012239;28;20029;-41
2022/06/03 03:34:27;;;;;;;5.50;4.38;;;7.40;87.60;;;;;;5030549;28;20025;-41
2022/06/03 03:37:11;;;;;;;7.40;4.47;;;7.40;87.60;;;;;;5030397;28;20439;-44
2022/06/03 03:40:07;;;;;;;6.38;5.13;;;7.40;87.50;;;;;;5037231;28;20370;-41
2022/06/03 03:42:51;;;;;;;6.68;5.15;;;7.40;87.30;;;;;;5037726;28;20341;-42
2022/06/03 03:45:23;;;;;;;5.85;4.95;;;7.50;87.00;;;;;;5029753;28;20049;-43
2022/06/03 03:48:23;;;;;;;5.47;4.45;;;7.50;86.70;;;;;;5044056;28;20488;-42
2022/06/03 03:51:00;;;;;;;6.57;5.18;;;7.50;86.90;;;;;;5041010;28;20029;-44
2022/06/03 03:53:52;;;;;;;6.95;4.85;;;7.50;86.90;;;;;;5031667;28;20094;-40
2022/06/03 03:56:31;;;;;;;6.97;4.78;;;7.40;87.10;;;;;;5029956;28;20037;-44
2022/06/03 03:59:05;;;;;;;6.38;4.43;;;7.50;87.30;;;;;;5032717;28;20028;-43
2022/06/03 04:01:50;;;;;;;6.78;4.55;;;7.60;87.20;;;;;;5029804;28;20045;-42
2022/06/03 04:04:38;;;;;;;6.93;4.85;;;7.60;87.20;;;;;;5049210;28;20029;-42
2022/06/03 04:07:06;;;;;;;6.00;4.57;;;7.60;87.20;;;;;;5032470;28;20029;-41
2022/06/03 04:09:56;;;;;;;7.93;5.53;;;7.70;87.20;;;;;;5031681;28;20025;-43
2022/06/03 04:12:28;;;;;;;6.93;4.85;;;7.70;87.20;;;;;;5032124;28;20491;-41
2022/06/03 04:15:25;;;;;;;6.97;6.28;;;7.80;87.30;;;;;;5044252;28;20095;-42
2022/06/03 04:17:56;;;;;;;8.60;6.30;;;7.90;87.40;;;;;;5031964;28;20017;-44
2022/06/03 04:20:42;;;;;;;7.30;5.80;;;7.90;87.70;;;;;;5011637;28;20022;-42
2022/06/03 04:23:22;;;;;;;6.72;5.68;;;8.00;87.90;;;;;;5030061;28;20021;-40
2022/06/03 04:26:22;;;;;;;6.68;5.30;;;8.10;87.90;;;;;;5032646;28;20424;-43
2022/06/03 04:29:34;;;;;;;8.13;5.80;;;8.20;87.80;;;;;;5051481;28;20056;-42
2022/06/03 04:32:37;;;;;;;6.45;5.32;;;8.40;87.90;;;;;;5033080;28;20033;-42
2022/06/03 04:35:41;;;;;;;6.30;5.70;;;8.50;88.00;;;;;;5046170;28;20064;-42
2022/06/03 04:38:29;;;;;;;6.72;5.97;;;8.60;88.00;;;;;;5033287;28;20021;-43
2022/06/03 04:41:09;;;;;;;6.85;5.82;;;8.70;88.00;;;;;;5031278;28;20133;-41
2022/06/03 04:44:18;;;;;;;7.05;6.25;;;8.90;88.00;;;;;;5028245;28;20446;-41
2022/06/03 04:47:29;;;;;;;7.47;5.82;;;8.90;87.90;;;;;;5029139;28;20030;-41
2022/06/03 04:50:25;;;;;;;7.15;5.30;;;9.00;87.90;;;;;;5031157;28;20026;-41
2022/06/03 04:53:10;;;;;;;5.78;5.18;;;9.10;87.90;;;;;;5029678;28;20082;-42
2022/06/03 04:55:54;;;;;;;7.45;5.30;;;9.20;87.90;;;;;;5029097;28;20503;-42
2022/06/03 04:58:59;;;;;;;6.75;5.15;;;9.30;87.90;;;;;;5041912;28;20028;-41
2022/06/03 05:02:19;;;;;;;6.90;6.03;;;9.40;88.00;;;;;;5049016;28;20102;-42
2022/06/03 05:05:00;;;;;;;7.45;5.90;;;9.40;88.10;;;;;;5017424;28;20080;-42
2022/06/03 05:07:59;;;;;;;7.03;6.13;;;9.50;88.20;;;;;;5028301;28;20033;-41
2022/06/03 05:10:49;;;;;;;8.50;6.97;;;9.60;88.30;;;;;;5029723;28;20059;-42
2022/06/03 05:13:33;;;;;;;7.22;6.18;;;9.80;88.40;;;;;;5028324;28;20291;-41
2022/06/03 05:16:35;;;;;;;7.95;7.15;;;10.00;88.60;;;;;;5027363;28;20033;-42
2022/06/03 05:19:01;;;;;;;6.90;6.00;;;10.20;88.60;;;;;;5030511;28;20083;-41
2022/06/03 05:21:38;;;;;;;8.23;6.90;;;10.40;88.60;;;;;;5030267;28;20423;-43
2022/06/03 05:24:46;;;;;;;9.23;6.68;;;10.60;88.50;;;;;;5030957;28;20088;-41
2022/06/03 05:27:49;;;;;;;7.78;6.97;;;10.80;88.40;;;;;;5029768;28;20032;-41
2022/06/03 05:30:47;;;;;;;7.13;6.22;;;10.90;88.30;;;;;;5027750;28;20466;-41
2022/06/03 05:33:33;;;;;;;10.30;7.65;;;11.10;88.40;;;;;;5031075;28;20037;-41
2022/06/03 05:36:18;;;;;;;13.68;10.23;;;11.30;88.50;;;;;;5035977;28;20056;-43
2022/06/03 05:39:04;;;;;;;14.38;11.75;;;11.40;88.70;;;;;;5033578;28;20040;-43
2022/06/03 05:45:15;;;;;;;14.88;11.85;;;12.20;89.20;;;;;;5037089;28;20048;-40
2022/06/03 05:47:44;;;;;;;14.88;11.93;;;12.90;88.70;;;;;;5027837;28;20021;-41
2022/06/03 05:50:16;;;;;;;14.07;9.15;;;13.30;87.70;;;;;;5028721;28;20060;-40
2022/06/03 05:53:07;;;;;;;11.65;9.35;;;13.90;87.30;;;;;;5027509;28;20033;-40
2022/06/03 05:55:51;;;;;;;12.50;11.18;;;14.20;86.10;;;;;;5024090;28;20095;-41
2022/06/03 05:58:39;;;;;;;12.80;8.65;;;14.60;85.50;;;;;;5028300;28;20025;-41
2022/06/03 06:01:29;;;;;;;10.02;5.30;;;14.80;83.50;;;;;;5027874;28;20364;-42
2022/06/03 06:04:20;;;;;;;9.18;5.40;;;14.90;81.80;;;;;;5023824;28;20025;-43
2022/06/03 06:07:22;;;;;;;11.23;5.97;;;14.90;82.00;;;;;;5029602;28;20488;-43
2022/06/03 06:10:05;;;;;;;9.10;6.28;;;14.90;81.80;;;;;;5028698;28;20507;-44
2022/06/03 06:12:36;;;;;;;10.45;7.32;;;14.90;82.80;;;;;;5029362;28;20045;-43
2022/06/03 06:15:33;;;;;;;8.00;6.28;;;15.00;81.50;;;;;;5029741;28;20029;-43
2022/06/03 06:17:58;;;;;;;6.30;5.57;;;15.20;81.90;;;;;;5026829;28;20040;-45
2022/06/03 06:20:27;;;;;;;10.85;5.22;;;15.40;81.80;;;;;;5028729;28;20021;-42
2022/06/03 06:22:59;;;;;;;7.20;3.75;;;15.50;80.10;;;;;;5029670;28;20025;-42
2022/06/03 06:25:38;;;;;;;4.97;2.80;;;15.40;81.00;;;;;;5029858;28;20029;-44
2022/06/03 06:28:14;;;;;;;7.65;3.47;;;15.30;80.30;;;;;;5027236;28;20047;-45
2022/06/03 06:31:05;;;;;;;5.47;3.13;;;15.20;80.20;;;;;;5027524;28;20347;-42
2022/06/03 06:34:16;;;;;;;4.93;3.00;;;15.20;80.50;;;;;;5027824;28;20388;-42
2022/06/03 06:37:00;;;;;;;7.43;2.83;;;15.20;80.80;;;;;;5023952;28;20450;-44
2022/06/03 06:40:07;;;;;;;6.38;3.17;;;15.20;80.50;;;;;;5029037;28;20171;-43
2022/06/03 06:42:41;;;;;;;3.85;2.95;;;15.20;80.40;;;;;;5031104;28;20042;-43
2022/06/03 06:45:45;;;;;;;6.28;3.35;;;15.20;81.40;;;;;;5027889;28;20413;-43
2022/06/03 06:48:16;;;;;;;7.53;3.42;;;15.20;81.50;;;;;;5026423;28;20049;-43
2022/06/03 06:51:26;;;;;;;7.85;4.45;;;15.00;81.40;;;;;;5025611;28;20465;-44
2022/06/03 06:53:56;;;;;;;;;;;15.20;81.20;;;;;;5009156;28;20076;-43
2022/06/03 06:56:33;;;;;;;3.67;2.60;;;15.10;80.30;;;;;;5026720;28;20319;-43
2022/06/03 06:59:12;;;;;;;5.97;3.40;;;15.20;79.60;;;;;;5030092;28;20088;-42
2022/06/03 07:01:41;;;;;;;4.22;2.25;;;15.20;78.80;;;;;;5027066;28;20446;-43
2022/06/03 07:04:12;;;;;;;7.55;3.47;;;15.20;79.00;;;;;;5027688;28;20029;-44
2022/06/03 07:06:47;;;;;;;5.15;2.42;;;15.30;79.20;;;;;;5029308;28;20036;-45
2022/06/03 07:09:24;;;;;;;7.28;3.10;;;15.30;77.70;;;;;;5027710;28;20029;-42
2022/06/03 07:12:04;;;;;;;6.50;3.38;;;15.50;77.80;;;;;;5026812;28;20470;-44
2022/06/03 07:14:33;;;;;;;5.35;3.35;;;15.80;78.20;;;;;;5028671;28;20405;-43
2022/06/03 07:20:20;;;;;;;5.63;2.70;;;16.30;76.50;;;;;;5027952;28;20036;-45
2022/06/03 07:22:58;;;;;;;8.13;3.28;;;16.90;74.70;;;;;;5027230;28;20013;-44
2022/06/03 07:25:30;;;;;;;6.57;4.32;;;17.80;72.70;;;;;;5035502;28;20037;-44
2022/06/03 07:28:09;;;;;;;6.38;3.05;;;18.50;71.00;;;;;;5026722;28;20037;-46
2022/06/03 07:30:35;;;;;;;4.63;2.60;;;19.10;68.60;;;;;;5027844;28;20168;-45
2022/06/03 07:33:12;;;;;;;5.88;2.88;;;19.60;66.60;;;;;;5028951;28;20096;-45
2022/06/03 07:35:46;;;;;;;5.15;2.10;;;20.00;64.40;;;;;;5028089;28;20112;-44
2022/06/03 07:38:26;;;;;;;7.68;3.05;;;20.40;64.00;;;;;;5028504;28;20033;-46
2022/06/03 07:40:55;;;;;;;8.45;3.50;;;20.50;63.20;;;;;;5022081;28;20036;-44
2022/06/03 07:43:24;;;;;;;7.80;4.35;;;20.80;59.70;;;;;;5021854;28;20486;-46
2022/06/03 07:45:55;;;;;;;5.95;4.43;;;21.10;60.40;;;;;;5015749;28;20037;-44
2022/06/03 07:48:27;;;;;;;5.38;4.47;;;21.30;58.30;;;;;;5036469;28;20112;-45
2022/06/03 07:51:04;;;;;;;6.70;4.10;;;21.20;58.90;;;;;;5027732;28;20022;-46
2022/06/03 07:54:04;;;;;;;6.65;3.63;;;21.60;59.00;;;;;;5028385;28;20061;-46
2022/06/03 07:56:34;;;;;;;5.35;2.95;;;21.70;57.30;;;;;;5040988;28;20033;-44
2022/06/03 07:59:20;;;;;;;7.28;3.55;;;21.90;57.00;;;;;;5030615;28;20361;-45
2022/06/03 08:02:17;;;;;;;6.82;3.15;;;22.40;56.70;;;;;;5025854;28;20041;-48
2022/06/03 08:04:45;;;;;;;7.93;3.30;;;22.50;54.80;;;;;;5025858;28;20039;-49
2022/06/03 08:12:59;;;;;;;4.35;2.40;;;22.90;55.40;;;;;;5025228;28;20040;-46
2022/06/03 08:15:30;;;;;;;5.18;2.63;;;22.60;52.40;;;;;;5026700;28;20041;-50
2022/06/03 08:17:57;;;;;;;5.50;2.85;;;23.00;53.60;;;;;;5027224;28;20036;-46
2022/06/03 08:20:25;;;;;;;6.50;2.70;;;23.30;54.30;;;;;;5024587;28;20087;-45
2022/06/03 08:22:53;;;;;;;5.05;2.75;;;23.50;51.20;;;;;;5028364;28;20052;-46
2022/06/03 08:25:24;;;;;;;8.07;2.92;;;23.40;50.00;;;;;;5034822;28;20021;-52
2022/06/03 08:27:50;;;;;;;6.38;2.67;;;23.40;52.10;;;;;;5032897;28;20082;-45
2022/06/03 08:30:34;;;;;;;4.57;2.70;;;23.50;50.50;;;;;;5034299;28;20049;-45
2022/06/03 08:33:05;;;;;;;6.18;2.83;;;23.50;50.10;;;;;;5035644;28;20497;-47
2022/06/03 08:35:37;;;;;;;5.10;2.45;;;23.90;49.70;;;;;;5030066;28;20068;-45
2022/06/03 08:38:08;;;;;;;5.22;2.60;;;23.80;51.20;;;;;;5029487;28;20032;-49
2022/06/03 08:40:54;;;;;;;5.03;2.47;;;24.00;49.40;;;;;;5032373;28;20034;-49
2022/06/03 08:43:51;;;;;;;7.45;2.60;;;24.10;48.90;;;;;;5026856;28;20064;-45
2022/06/03 08:46:24;;;;;;;5.95;3.00;;;23.60;50.20;;;;;;5045494;28;20116;-47
2022/06/03 08:48:52;;;;;;;6.03;2.95;;;23.60;53.30;;;;;;5037611;28;20039;-45
2022/06/03 08:51:24;;;;;;;5.25;2.85;;;23.20;53.40;;;;;;5029125;28;20029;-48
2022/06/03 08:53:54;;;;;;;6.53;2.50;;;23.10;52.90;;;;;;5030123;28;20157;-47
2022/06/03 08:56:21;;;;;;;4.57;2.10;;;23.40;53.40;;;;;;5030167;28;20029;-45
2022/06/03 08:58:56;;;;;;;5.85;3.15;;;23.50;52.70;;;;;;5029126;28;20029;-47
2022/06/03 09:01:53;;;;;;;6.22;3.13;;;23.40;53.90;;;;;;5036626;28;20048;-50
2022/06/03 09:04:24;;;;;;;3.63;2.28;;;23.10;54.70;;;;;;5049684;28;20032;-48
2022/06/03 09:07:19;;;;;;;4.88;2.45;;;22.90;52.70;;;;;;5050975;28;20044;-48
2022/06/03 09:09:44;;;;;;;3.95;2.03;;;22.50;51.30;;;;;;5020913;28;20171;-45
2022/06/03 09:12:25;;;;;;;4.15;2.30;;;22.60;50.80;;;;;;5027018;28;20494;-49
2022/06/03 09:14:52;;;;;;;5.32;2.30;;;22.50;52.50;;;;;;5038867;28;20037;-47
2022/06/03 09:17:42;;;;;;;5.75;1.80;;;22.40;49.20;;;;;;5037707;28;20021;-49
2022/06/03 09:20:31;;;;;;;3.97;1.88;;;22.50;50.90;;;;;;5020696;28;20040;-45
2022/06/03 09:23:04;;;;;;;4.22;2.42;;;22.40;54.90;;;;;;5029597;28;20045;-50
2022/06/03 09:25:31;;;;;;;5.22;2.25;;;22.30;52.10;;;;;;5034673;28;20040;-47
2022/06/03 09:28:00;;;;;;;3.60;1.90;;;22.40;52.30;;;;;;5013511;28;20343;-46
2022/06/03 09:30:46;;;;;;;5.30;1.73;;;22.50;52.80;;;;;;5030489;28;20355;-51
2022/06/03 09:33:15;;;;;;;6.10;2.50;;;22.60;52.70;;;;;;5029011;28;20048;-49
2022/06/03 09:35:45;;;;;;;4.68;2.03;;;22.50;54.20;;;;;;5029811;28;20120;-46
2022/06/03 09:38:13;;;;;;;4.65;2.40;;;22.30;52.90;;;;;;5033520;28;20088;-47
2022/06/03 09:40:44;;;;;;;3.70;1.80;;;22.30;54.20;;;;;;5029397;28;20017;-46
2022/06/03 09:43:39;;;;;;;5.57;1.95;;;21.80;54.80;;;;;;5027847;28;20021;-47
2022/06/03 09:46:11;;;;;;;6.13;2.35;;;21.90;52.30;;;;;;5022919;28;20029;-49
2022/06/03 09:48:37;;;;;;;7.20;2.40;;;22.20;53.70;;;;;;5024499;28;20029;-45
2022/06/03 09:51:55;;;;;;;4.13;2.10;;;22.00;55.80;;;;;;5050611;28;20055;-46
2022/06/03 09:54:19;;;;;;;5.10;2.93;;;22.00;55.60;;;;;;5036918;28;20044;-46
2022/06/03 09:56:50;;;;;;;6.40;2.85;;;21.70;52.80;;;;;;5039015;28;20112;-46
2022/06/03 09:59:20;;;;;;;4.65;2.20;;;21.80;57.30;;;;;;5027492;28;20048;-45
2022/06/03 10:01:48;;;;;;;5.13;2.20;;;21.60;59.70;;;;;;5038168;28;20025;-46
2022/06/03 10:04:15;;;;;;;4.80;3.03;;;22.10;55.40;;;;;;5010843;28;20030;-49
2022/06/03 10:06:46;;;;;;;4.88;2.30;;;22.10;52.90;;;;;;5019949;28;20346;-46
2022/06/03 10:18:08;;;;;;;4.45;1.92;;;22.20;55.40;;;;;;5026061;28;20065;-46
2022/06/03 10:20:35;;;;;;;4.35;1.50;;;22.20;54.90;;;;;;5040519;28;20037;-46
2022/06/03 10:23:06;;;;;;;7.03;2.47;;;22.20;53.50;;;;;;5038713;28;20071;-47
2022/06/03 10:25:32;;;;;;;5.60;1.85;;;22.20;53.50;;;;;;5030279;28;20056;-46
2022/06/03 10:28:06;;;;;;;4.80;2.28;;;22.20;52.80;;;;;;5028431;28;20436;-46
2022/06/03 10:30:33;;;;;;;5.90;1.73;;;22.10;55.50;;;;;;5028880;28;20121;-46
2022/06/03 10:32:59;;;;;;;6.18;1.90;;;22.10;55.20;;;;;;5027111;28;20107;-45
2022/06/03 10:35:26;;;;;;;3.47;1.65;;;22.20;56.70;;;;;;5028428;28;20338;-46
2022/06/03 10:38:01;;;;;;;6.22;2.55;;;22.10;53.40;;;;;;5028047;28;20030;-46
2022/06/03 10:40:29;;;;;;;5.55;2.10;;;22.00;53.70;;;;;;5035456;28;20029;-47
2022/06/03 10:42:57;;;;;;;5.85;2.10;;;22.10;54.80;;;;;;5035017;28;20711;-47
2022/06/03 10:45:34;;;;;;;4.63;1.70;;;22.10;55.40;;;;;;5028134;28;20029;-48
2022/06/03 10:48:18;;;;;;;7.00;2.03;;;21.90;61.40;;;;;;5031354;28;20032;-45
2022/06/03 10:50:46;;;;;;;7.05;1.95;;;22.00;57.90;;;;;;5028194;28;20040;-46
2022/06/03 11:01:51;;;;;;;3.55;1.40;;;21.20;56.70;;;;;;5049071;28;19939;-47
2022/06/03 11:04:23;;;;;;;5.03;1.85;;;21.50;54.80;;;;;;5039441;28;20089;-46
2022/06/03 11:06:49;;;;;;;3.63;1.85;;;21.50;58.30;;;;;;5045803;28;20039;-46
2022/06/03 11:09:15;;;;;;;4.82;1.33;;;21.70;56.60;;;;;;5040748;28;20116;-46
2022/06/03 11:11:48;;;;;;;5.20;1.90;;;21.60;58.00;;;;;;5048775;28;20104;-45
2022/06/03 11:14:35;;;;;;;4.95;1.65;;;21.50;59.10;;;;;;5030557;28;20477;-47
2022/06/03 11:17:16;;;;;;;10.50;2.55;;;21.40;62.50;;;;;;5027494;28;20024;-46
2022/06/03 11:19:49;;;;;;;4.07;1.77;;;21.00;58.60;;;;;;5038995;28;20021;-45
2022/06/03 11:22:36;;;;;;;5.18;2.20;;;21.10;59.90;;;;;;5038029;28;20029;-49
2022/06/03 11:25:19;;;;;;;2.88;1.45;;;20.90;64.00;;;;;;5028399;28;20040;-45
2022/06/03 11:28:09;;;;;;;5.75;1.73;;;20.60;61.10;;;;;;5027226;28;20048;-45
2022/06/03 11:30:53;;;;;;;5.05;1.83;;;20.80;60.90;;;;;;5038896;28;20440;-46
2022/06/03 11:33:28;;;;;;;4.82;1.55;;;20.80;62.60;;;;;;5027948;28;20046;-46
2022/06/03 11:35:59;;;;;;;5.13;1.73;;;20.80;60.20;;;;;;5027804;28;20106;-45
2022/06/03 11:38:40;;;;;;;5.75;1.70;;;20.80;62.70;;;;;;5046875;28;20029;-45
2022/06/03 11:41:16;;;;;;;10.30;3.00;;;20.90;59.90;;;;;;5046754;28;20041;-46
2022/06/03 11:43:50;;;;;;;2.83;1.50;;;20.90;60.10;;;;;;5034137;28;20030;-45
2022/06/03 11:46:25;;;;;;;3.80;1.60;;;20.60;60.50;;;;;;5037093;28;20044;-45
2022/06/03 11:48:52;;;;;;;10.32;2.47;;;20.40;61.20;;;;;;5033910;28;20037;-45
2022/06/03 11:51:19;;;;;;;5.22;1.80;;;20.30;64.30;;;;;;5027276;28;20048;-45
2022/06/03 11:53:48;;;;;;;5.97;2.45;;;20.20;64.10;;;;;;5027985;28;20052;-45
2022/06/03 11:56:23;;;;;;;5.40;1.90;;;20.00;64.30;;;;;;5028200;28;20044;-46
2022/06/03 11:58:53;;;;;;;6.68;1.90;;;19.90;62.30;;;;;;5041929;28;20029;-45
2022/06/03 12:01:38;;;;;;;4.97;1.98;;;19.80;65.70;;;;;;5052497;28;20406;-47
2022/06/03 12:04:18;;;;;;;6.35;2.13;;;19.70;64.90;;;;;;5041024;28;20029;-46
2022/06/03 12:06:49;;;;;;;3.95;2.08;;;19.50;66.10;;;;;;5030930;28;20455;-46
2022/06/03 12:09:23;;;;;;;7.50;2.53;;;19.50;66.10;;;;;;5037921;28;20029;-48
2022/06/03 12:14:40;;;;;;;4.65;1.88;;;19.30;67.70;;;;;;5028614;28;20370;-45
2022/06/03 12:17:06;;;;;;;4.97;2.00;;;19.10;66.20;;;;;;5043310;28;20032;-44
2022/06/03 12:19:53;;;;;;;5.40;2.10;;;19.20;67.40;;;;;;5040553;28;20025;-46
2022/06/03 12:22:39;;;;;;;5.60;2.13;;;19.10;68.00;;;;;;5029866;28;20022;-44
2022/06/03 12:25:26;;;;;;;4.78;2.85;;;19.20;68.70;;;;;;5031877;28;20464;-44
2022/06/03 12:27:55;;;;;;;7.93;2.42;;;19.00;68.40;;;;;;5031474;28;20091;-44
2022/06/03 12:30:29;;;;;;;;;;;18.90;68.10;;;;;;5029628;28;20029;-45
2022/06/03 12:33:02;;;;;;;5.55;2.25;;;18.80;67.50;;;;;;5046853;28;19919;-44
2022/06/03 12:35:47;;;;;;;8.90;2.78;;;18.80;67.70;;;;;;5029468;28;20032;-44
2022/06/03 12:38:23;;;;;;;5.82;2.00;;;18.50;66.00;;;;;;5029707;28;20113;-45
2022/06/03 12:40:53;;;;;;;3.78;1.63;;;18.40;66.70;;;;;;5039818;28;20035;-44
2022/06/03 12:43:46;;;;;;;3.88;1.13;;;18.40;65.40;;;;;;5025463;28;20025;-45
2022/06/03 12:46:41;;;;;;;4.28;1.50;;;18.40;63.40;;;;;;5027632;28;20417;-46
2022/06/03 12:49:32;;;;;;;6.15;2.08;;;18.40;66.10;;;;;;5047393;28;20029;-48
2022/06/03 12:52:07;;;;;;;4.93;1.70;;;18.40;64.10;;;;;;5034671;28;20401;-46
2022/06/03 12:54:37;;;;;;;4.60;1.88;;;18.40;64.40;;;;;;5030767;28;20489;-46
2022/06/03 12:57:17;;;;;;;6.30;1.80;;;18.30;64.30;;;;;;5029187;28;20057;-48
2022/06/03 12:59:49;;;;;;;4.68;1.83;;;18.40;67.60;;;;;;5031099;28;20536;-45
2022/06/03 13:02:37;;;;;;;6.22;2.03;;;18.40;65.60;;;;;;5030303;28;20046;-49
2022/06/03 13:05:10;;;;;;;3.80;1.88;;;18.30;66.30;;;;;;5031984;28;20048;-44
2022/06/03 13:07:54;;;;;;;6.47;2.13;;;18.00;64.60;;;;;;5039453;28;20036;-45
2022/06/03 13:10:24;;;;;;;4.93;2.05;;;17.90;67.30;;;;;;5028699;28;20072;-46
2022/06/03 13:12:53;;;;;;;;;;;17.80;67.00;;;;;;5040587;28;20057;-45
2022/06/03 13:15:22;;;;;;;7.50;3.50;;;17.60;66.80;;;;;;5029219;28;19924;-47
2022/06/03 13:18:18;;;;;;;5.85;1.95;;;17.70;68.30;;;;;;5031317;28;20029;-45
2022/06/03 13:21:17;;;;;;;6.05;2.10;;;17.60;66.40;;;;;;5045638;28;20043;-45
2022/06/03 13:23:44;;;;;;;;;;;17.60;67.30;;;;;;5018014;28;20038;-46
2022/06/03 13:26:30;;;;;;;7.80;2.13;;;17.60;67.60;;;;;;5051485;28;19909;-45
2022/06/03 13:29:02;;;;;;;6.47;2.78;;;17.60;67.70;;;;;;5026605;28;20385;-45
2022/06/03 13:31:50;;;;;;;5.40;2.22;;;17.50;69.80;;;;;;5029944;28;20095;-44
2022/06/03 13:34:40;;;;;;;9.43;2.38;;;17.50;67.30;;;;;;5031448;28;20108;-45
2022/06/03 13:37:30;;;;;;;11.85;2.97;;;17.40;68.50;;;;;;5033317;28;20044;-47
2022/06/03 13:39:56;;;;;;;7.43;2.53;;;17.40;67.80;;;;;;5042566;28;20017;-47
2022/06/03 13:45:19;;;;;;;8.40;2.40;;;17.20;68.30;;;;;;5029972;28;20045;-47
2022/06/03 13:47:45;;;;;;;8.45;2.45;;;17.10;69.80;;;;;;5027689;28;20063;-46
2022/06/03 13:50:13;;;;;;;8.07;2.83;;;17.20;68.10;;;;;;5038329;28;20029;-50
2022/06/03 13:52:47;;;;;;;6.00;2.45;;;17.20;68.80;;;;;;5029853;28;20025;-48
2022/06/03 13:55:31;;;;;;;7.45;3.22;;;17.10;68.80;;;;;;5030777;28;20032;-47
2022/06/03 13:58:36;;;;;;;5.55;3.10;;;17.10;71.70;;;;;;5031762;28;20030;-45
2022/06/03 14:01:15;;;;;;;6.57;2.45;;;17.30;71.00;;;;;;4974192;28;20031;-45
2022/06/03 14:03:52;;;;;;;6.10;2.95;;;17.20;71.10;;;;;;4975406;28;20073;-44
2022/06/03 14:06:48;;;;;;;4.75;2.50;;;17.00;69.10;;;;;;4973533;28;20157;-47
2022/06/03 14:09:27;;;;;;;5.13;2.60;;;17.10;72.20;;;;;;4988047;28;20106;-44
2022/06/03 14:12:07;;;;;;;7.13;3.20;;;17.20;69.70;;;;;;4982737;28;20450;-45
2022/06/03 14:14:57;;;;;;;5.85;2.15;;;17.10;70.80;;;;;;4973551;28;20460;-45
2022/06/03 14:17:51;;;;;;;4.88;2.88;;;17.10;70.90;;;;;;4976043;28;20039;-46
2022/06/03 14:20:30;;;;;;;8.38;2.75;;;17.00;72.00;;;;;;4987837;28;20053;-46
2022/06/03 14:23:17;;;;;;;7.33;3.37;;;16.90;70.70;;;;;;4987692;28;20042;-47
2022/06/03 14:25:51;;;;;;;6.25;2.60;;;17.00;72.30;;;;;;4987770;28;20039;-45
2022/06/03 14:29:00;;;;;;;4.95;2.50;;;16.90;72.20;;;;;;4987767;28;20152;-45
2022/06/03 14:31:50;;;;;;;6.20;2.17;;;17.00;72.00;;;;;;4947395;29;20039;-45
2022/06/03 14:34:37;;;;;;;7.60;2.30;;;17.00;70.00;;;;;;4937295;28;20113;-44
2022/06/03 14:37:07;;;;;;;6.28;2.53;;;16.90;69.70;;;;;;4952476;28;20065;-46
2022/06/03 14:39:38;;;;;;;5.15;2.10;;;16.90;70.50;;;;;;4953204;28;20058;-46
2022/06/03 14:42:12;;;;;;;6.93;2.38;;;16.80;69.80;;;;;;4961773;28;20050;-44
2022/06/03 14:44:45;;;;;;;4.53;2.22;;;16.90;70.00;;;;;;4948599;28;20172;-45